Time;durP1;ratioP1;P1;durP2;ratioP2;P2;SDS_P1;SDS_P2;PMS_P1;PMS_P2;Temp;Humidity;BMP_temperature;BMP_pressure;BME280_temperature;BME280_humidity;BME280_pressure;Samples;Min_cycle;Max_cycle;Signal;HPM_P1;HPM_P2
2023/07/21 00:00:00;;;;;;;6.23;5.63;;;17.90;99.90;;;;;;5071879;28;20505;-81
2023/07/21 00:02:28;;;;;;;5.80;5.30;;;17.80;99.90;;;;;;5072153;28;20454;-80
2023/07/21 00:04:55;;;;;;;5.23;4.77;;;17.80;99.90;;;;;;5074908;28;20909;-80
2023/07/21 00:07:24;;;;;;;6.10;5.50;;;17.80;99.90;;;;;;5067794;28;20493;-80
2023/07/21 00:09:51;;;;;;;6.33;5.70;;;17.80;99.90;;;;;;5053026;28;20493;-78
2023/07/21 00:12:18;;;;;;;7.60;5.60;;;17.70;99.90;;;;;;5053620;28;20448;-78
2023/07/21 00:14:45;;;;;;;6.37;5.30;;;17.70;99.90;;;;;;5056505;28;20473;-79
2023/07/21 00:17:12;;;;;;;6.40;5.80;;;17.70;99.90;;;;;;5055583;28;20508;-80
2023/07/21 00:19:41;;;;;;;6.50;5.10;;;17.70;99.90;;;;;;5055719;28;20452;-78
2023/07/21 00:22:08;;;;;;;6.47;5.70;;;17.60;99.90;;;;;;5054792;28;20480;-78
2023/07/21 00:24:35;;;;;;;6.63;4.97;;;17.60;99.90;;;;;;5055196;28;20480;-81
2023/07/21 00:27:02;;;;;;;5.70;4.93;;;17.60;99.90;;;;;;5054530;28;20472;-79
2023/07/21 00:29:29;;;;;;;6.03;5.43;;;17.60;99.90;;;;;;5055628;28;21053;-78
2023/07/21 00:31:56;;;;;;;7.27;5.63;;;17.50;99.90;;;;;;5053454;28;20498;-80
2023/07/21 00:34:24;;;;;;;6.30;5.70;;;17.50;99.90;;;;;;5055524;28;20934;-78
2023/07/21 00:36:56;;;;;;;6.17;5.67;;;17.50;99.90;;;;;;5054481;28;20487;-78
2023/07/21 00:39:23;;;;;;;5.90;5.40;;;17.50;99.90;;;;;;5055973;28;20921;-79
2023/07/21 00:41:50;;;;;;;5.73;5.23;;;17.40;99.90;;;;;;5054786;28;20458;-80
2023/07/21 00:44:17;;;;;;;9.27;5.50;;;17.40;99.90;;;;;;5055399;28;20858;-78
2023/07/21 00:46:44;;;;;;;6.50;5.90;;;17.40;99.90;;;;;;5054295;28;20465;-80
2023/07/21 00:49:11;;;;;;;6.17;5.60;;;17.30;99.90;;;;;;5055345;28;20537;-80
2023/07/21 00:51:39;;;;;;;7.00;6.30;;;17.30;99.90;;;;;;5054516;28;20451;-79
2023/07/21 00:54:07;;;;;;;6.53;5.90;;;17.30;99.90;;;;;;5054411;28;20451;-79
2023/07/21 00:56:34;;;;;;;6.73;6.13;;;17.20;99.90;;;;;;5056801;28;20462;-77
2023/07/21 00:59:01;;;;;;;9.87;6.63;;;17.20;99.90;;;;;;5059730;28;20451;-78
2023/07/21 01:01:28;;;;;;;6.20;5.60;;;17.20;99.90;;;;;;5060008;28;20454;-77
2023/07/21 01:03:55;;;;;;;6.13;5.53;;;17.20;99.90;;;;;;5060946;28;20497;-79
2023/07/21 01:06:26;;;;;;;6.23;5.73;;;17.10;99.90;;;;;;5058545;28;20450;-77
2023/07/21 01:08:54;;;;;;;7.07;6.47;;;17.10;99.90;;;;;;5059989;28;20445;-78
2023/07/21 01:11:24;;;;;;;6.27;5.67;;;17.10;99.90;;;;;;5060087;28;20490;-78
2023/07/21 01:13:53;;;;;;;6.13;5.63;;;17.10;99.90;;;;;;5059203;28;20456;-78
2023/07/21 01:16:22;;;;;;;8.00;7.20;;;17.10;99.90;;;;;;5057056;28;20453;-77
2023/07/21 01:18:50;;;;;;;8.10;7.50;;;17.00;99.90;;;;;;5060104;28;20469;-78
2023/07/21 01:21:30;;;;;;;7.00;6.33;;;17.00;99.90;;;;;;5053934;28;20531;-79
2023/07/21 01:24:05;;;;;;;6.10;5.50;;;17.00;99.90;;;;;;5053839;28;20475;-78
2023/07/21 01:26:35;;;;;;;6.57;6.07;;;17.00;99.90;;;;;;5053122;28;20446;-78
2023/07/21 01:29:04;;;;;;;7.00;6.30;;;17.00;99.90;;;;;;5053703;28;20488;-79
2023/07/21 01:31:30;;;;;;;5.70;5.20;;;17.00;99.90;;;;;;5053624;28;20811;-79
2023/07/21 01:33:58;;;;;;;6.83;5.37;;;16.90;99.90;;;;;;5053782;28;20453;-78
2023/07/21 01:36:26;;;;;;;7.03;5.57;;;16.90;99.90;;;;;;5052991;28;20451;-78
2023/07/21 01:38:53;;;;;;;6.00;5.50;;;16.90;99.90;;;;;;5052996;28;20454;-78
2023/07/21 01:41:21;;;;;;;6.93;6.20;;;16.90;99.90;;;;;;5053489;28;20454;-79
2023/07/21 01:43:50;;;;;;;6.67;6.07;;;16.90;99.90;;;;;;5053337;28;20453;-79
2023/07/21 01:46:17;;;;;;;6.87;6.23;;;16.90;99.90;;;;;;5052190;28;20463;-78
2023/07/21 01:48:46;;;;;;;6.53;5.83;;;16.90;99.90;;;;;;5053192;28;20508;-80
2023/07/21 01:51:14;;;;;;;7.03;6.43;;;16.90;99.90;;;;;;5053685;28;20555;-79
2023/07/21 01:53:45;;;;;;;5.70;5.20;;;16.90;99.90;;;;;;5052795;28;20467;-79
2023/07/21 01:56:18;;;;;;;6.63;6.00;;;16.90;99.90;;;;;;5052561;28;20531;-80
2023/07/21 01:58:47;;;;;;;6.83;5.93;;;16.90;99.90;;;;;;5053111;28;20865;-79
2023/07/21 02:01:17;;;;;;;5.60;5.10;;;16.90;99.90;;;;;;5052723;28;20904;-77
2023/07/21 02:03:45;;;;;;;6.30;5.70;;;16.90;99.90;;;;;;5052978;28;20540;-78
2023/07/21 02:06:15;;;;;;;6.40;5.83;;;16.90;99.90;;;;;;5052498;28;20444;-77
2023/07/21 02:08:42;;;;;;;6.17;5.67;;;16.80;99.90;;;;;;5052836;28;20473;-79
2023/07/21 02:11:09;;;;;;;7.00;6.37;;;16.80;99.90;;;;;;5053132;28;20460;-77
2023/07/21 02:13:35;;;;;;;6.83;5.40;;;16.80;99.90;;;;;;5052994;28;20467;-79
2023/07/21 02:16:02;;;;;;;6.90;6.30;;;16.80;99.90;;;;;;5052134;28;20456;-78
2023/07/21 02:18:34;;;;;;;7.23;6.60;;;16.80;99.90;;;;;;5052374;28;20990;-77
2023/07/21 02:21:03;;;;;;;6.60;6.00;;;16.80;99.90;;;;;;5051995;28;20443;-79
2023/07/21 02:23:30;;;;;;;6.73;6.03;;;16.80;99.90;;;;;;5052662;28;20454;-80
2023/07/21 02:25:57;;;;;;;6.13;5.53;;;16.80;99.90;;;;;;5051525;28;21005;-78
2023/07/21 02:28:24;;;;;;;6.30;5.20;;;16.80;99.90;;;;;;5052795;28;20487;-80
2023/07/21 02:31:03;;;;;;;6.83;5.90;;;16.80;99.90;;;;;;5052733;28;20819;-79
2023/07/21 02:33:32;;;;;;;7.87;5.53;;;16.80;99.90;;;;;;5053461;28;20449;-78
2023/07/21 02:35:59;;;;;;;5.90;5.30;;;16.80;99.90;;;;;;5051400;28;20451;-80
2023/07/21 02:38:26;;;;;;;6.87;6.27;;;16.80;99.90;;;;;;5052426;28;20469;-78
2023/07/21 02:40:53;;;;;;;5.93;5.43;;;16.80;99.90;;;;;;5052519;28;20460;-79
2023/07/21 02:43:22;;;;;;;6.13;5.63;;;16.80;99.90;;;;;;5052748;28;20457;-79
2023/07/21 02:45:50;;;;;;;6.70;6.10;;;16.80;99.90;;;;;;5051949;28;20525;-79
2023/07/21 02:48:18;;;;;;;5.67;5.17;;;16.80;99.90;;;;;;5052376;28;21044;-79
2023/07/21 02:50:48;;;;;;;7.53;5.60;;;16.80;99.90;;;;;;5052654;28;20465;-76
2023/07/21 02:53:15;;;;;;;6.60;5.90;;;16.70;99.90;;;;;;5052495;28;20508;-79
2023/07/21 02:55:43;;;;;;;6.23;5.63;;;16.80;99.90;;;;;;5051937;28;20446;-79
2023/07/21 02:58:12;;;;;;;6.27;5.77;;;16.80;99.90;;;;;;5052194;28;20542;-79
2023/07/21 03:00:39;;;;;;;5.93;5.43;;;16.70;99.90;;;;;;5052261;28;20458;-79
2023/07/21 03:03:06;;;;;;;8.03;6.13;;;16.70;99.90;;;;;;5052133;28;20457;-79
2023/07/21 03:05:34;;;;;;;6.33;5.80;;;16.70;99.90;;;;;;5051626;28;20496;-78
2023/07/21 03:08:03;;;;;;;5.47;4.97;;;16.70;99.90;;;;;;5052358;28;20483;-78
2023/07/21 03:10:30;;;;;;;8.10;5.50;;;16.70;99.90;;;;;;5051873;28;20976;-78
2023/07/21 03:12:57;;;;;;;6.90;6.07;;;16.60;99.90;;;;;;5052054;28;20458;-78
2023/07/21 03:15:24;;;;;;;5.73;4.97;;;16.60;99.90;;;;;;5051788;28;20455;-80
2023/07/21 03:17:50;;;;;;;6.10;5.50;;;16.50;99.90;;;;;;5052019;28;20840;-77
2023/07/21 03:20:17;;;;;;;7.20;5.73;;;16.60;99.90;;;;;;5050707;28;20459;-78
2023/07/21 03:22:45;;;;;;;6.00;5.40;;;16.50;99.90;;;;;;5052688;28;20881;-78
2023/07/21 03:25:13;;;;;;;6.83;4.80;;;16.50;99.90;;;;;;5051955;28;20486;-78
2023/07/21 03:27:41;;;;;;;6.90;5.10;;;16.60;99.90;;;;;;5051470;28;21136;-77
2023/07/21 03:30:09;;;;;;;6.30;5.50;;;16.50;99.90;;;;;;5051556;28;20452;-79
2023/07/21 03:32:36;;;;;;;6.57;5.43;;;16.50;99.90;;;;;;5052967;28;20465;-79
2023/07/21 03:35:05;;;;;;;6.10;4.83;;;16.50;99.90;;;;;;5052458;28;20451;-78
2023/07/21 03:37:34;;;;;;;5.20;4.77;;;16.50;99.90;;;;;;5051670;28;20549;-79
2023/07/21 03:40:02;;;;;;;5.90;5.40;;;16.50;99.90;;;;;;5055228;28;20539;-80
2023/07/21 03:42:31;;;;;;;9.00;6.60;;;16.40;99.90;;;;;;5056406;28;20478;-82
2023/07/21 03:44:57;;;;;;;6.23;5.70;;;16.40;99.90;;;;;;5054353;28;20487;-78
2023/07/21 03:47:24;;;;;;;6.20;5.60;;;16.40;99.90;;;;;;5054153;28;20859;-77
2023/07/21 03:49:51;;;;;;;7.83;6.60;;;16.40;99.90;;;;;;5055424;28;20453;-77
2023/07/21 03:52:18;;;;;;;7.50;6.80;;;16.40;99.90;;;;;;5054625;28;20548;-77
2023/07/21 03:54:45;;;;;;;7.33;6.63;;;16.40;99.90;;;;;;5055463;28;20440;-78
2023/07/21 03:57:11;;;;;;;6.63;6.03;;;16.40;99.90;;;;;;5053686;28;20479;-77
2023/07/21 03:59:41;;;;;;;7.00;6.30;;;16.30;99.90;;;;;;5052227;28;20469;-76
2023/07/21 04:02:08;;;;;;;7.90;7.10;;;16.40;99.90;;;;;;5054080;28;20547;-77
2023/07/21 04:04:35;;;;;;;7.17;6.47;;;16.40;99.90;;;;;;5054796;28;20832;-78
2023/07/21 04:07:05;;;;;;;9.50;7.40;;;16.40;99.90;;;;;;5051624;28;20664;-78
2023/07/21 04:09:32;;;;;;;8.83;8.03;;;16.40;99.90;;;;;;5053045;28;20465;-78
2023/07/21 04:11:58;;;;;;;7.67;7.07;;;16.40;99.90;;;;;;5054452;28;20452;-79
2023/07/21 04:14:25;;;;;;;7.43;6.73;;;16.40;99.90;;;;;;5054974;28;20450;-78
2023/07/21 04:16:54;;;;;;;8.67;7.87;;;16.40;99.90;;;;;;5053644;28;20480;-78
2023/07/21 04:19:20;;;;;;;8.47;6.93;;;16.40;99.90;;;;;;5050813;28;20996;-78
2023/07/21 04:21:48;;;;;;;9.50;8.03;;;16.40;99.90;;;;;;5054149;28;20956;-79
2023/07/21 04:24:15;;;;;;;8.13;7.33;;;16.40;99.90;;;;;;5053719;28;20960;-79
2023/07/21 04:26:41;;;;;;;9.63;7.73;;;16.40;99.90;;;;;;5057004;28;20886;-77
2023/07/21 04:29:08;;;;;;;8.10;7.33;;;16.40;99.90;;;;;;5060007;28;20534;-77
2023/07/21 04:31:35;;;;;;;8.67;7.77;;;16.40;99.90;;;;;;5059939;28;20459;-77
2023/07/21 04:34:03;;;;;;;8.90;8.10;;;16.40;99.90;;;;;;5054450;28;20462;-79
2023/07/21 04:36:30;;;;;;;10.20;9.20;;;16.40;99.90;;;;;;5053425;28;20860;-78
2023/07/21 04:38:57;;;;;;;8.90;7.70;;;16.40;99.90;;;;;;5054036;28;20457;-78
2023/07/21 04:41:25;;;;;;;10.77;8.40;;;16.40;99.90;;;;;;5054141;28;20452;-78
2023/07/21 04:43:51;;;;;;;9.47;8.67;;;16.50;99.90;;;;;;5054484;28;21063;-76
2023/07/21 04:46:18;;;;;;;10.83;9.83;;;16.50;99.90;;;;;;5052820;28;21005;-77
2023/07/21 04:48:45;;;;;;;10.90;9.70;;;16.50;99.90;;;;;;5053753;28;20473;-77
2023/07/21 04:51:14;;;;;;;11.27;10.27;;;16.60;99.90;;;;;;5052857;28;20457;-77
2023/07/21 04:53:42;;;;;;;11.60;10.40;;;16.60;99.90;;;;;;5055093;28;20462;-78
2023/07/21 04:56:09;;;;;;;13.57;11.63;;;16.70;99.90;;;;;;5053802;28;20448;-80
2023/07/21 04:58:35;;;;;;;13.23;11.90;;;16.70;99.90;;;;;;5054371;28;20576;-78
2023/07/21 05:01:02;;;;;;;13.30;11.90;;;16.70;99.90;;;;;;5054125;28;20549;-81
2023/07/21 05:03:29;;;;;;;12.40;11.30;;;16.70;99.90;;;;;;5054440;28;20459;-79
2023/07/21 05:05:56;;;;;;;13.70;12.40;;;16.80;99.90;;;;;;5053214;28;20558;-80
2023/07/21 05:08:25;;;;;;;13.60;12.17;;;16.80;99.90;;;;;;5047811;28;20860;-80
2023/07/21 05:10:54;;;;;;;13.23;11.90;;;16.90;99.90;;;;;;5055346;28;20450;-77
2023/07/21 05:13:21;;;;;;;16.03;14.40;;;16.90;99.90;;;;;;5067612;28;20483;-81
2023/07/21 05:15:59;;;;;;;15.27;13.70;;;16.90;99.90;;;;;;5051440;28;20490;-78
2023/07/21 05:18:26;;;;;;;16.63;13.97;;;16.90;99.90;;;;;;5016454;28;20479;-78
2023/07/21 05:20:52;;;;;;;15.47;13.77;;;17.00;99.90;;;;;;5052638;28;20830;-78
2023/07/21 05:23:19;;;;;;;14.83;13.30;;;16.90;99.90;;;;;;5052679;28;20453;-80
2023/07/21 05:25:47;;;;;;;15.53;14.03;;;17.00;99.90;;;;;;5060363;28;20480;-81
2023/07/21 05:28:14;;;;;;;16.23;13.87;;;17.00;99.90;;;;;;5073933;28;20479;-80
2023/07/21 05:30:42;;;;;;;15.07;13.43;;;17.00;99.90;;;;;;5072926;28;20455;-78
2023/07/21 05:33:09;;;;;;;14.87;13.20;;;17.00;99.90;;;;;;5072512;28;20456;-79
2023/07/21 05:35:36;;;;;;;14.40;13.00;;;17.10;99.90;;;;;;5071910;28;20454;-78
2023/07/21 05:38:03;;;;;;;16.87;13.73;;;17.10;99.90;;;;;;5065912;28;20849;-79
2023/07/21 05:40:30;;;;;;;16.07;14.37;;;17.10;99.90;;;;;;5061824;28;20488;-79
2023/07/21 05:42:58;;;;;;;16.20;14.57;;;17.10;99.90;;;;;;5072534;28;20874;-78
2023/07/21 05:45:24;;;;;;;14.17;12.67;;;17.10;99.90;;;;;;5066732;28;20486;-77
2023/07/21 05:47:51;;;;;;;18.60;14.50;;;17.20;99.90;;;;;;5051187;28;20479;-78
2023/07/21 05:50:18;;;;;;;23.83;16.07;;;17.30;99.90;;;;;;5052004;28;20932;-78
2023/07/21 05:52:45;;;;;;;17.27;15.47;;;17.30;99.90;;;;;;5053103;28;20469;-79
2023/07/21 05:55:11;;;;;;;16.10;14.57;;;17.40;99.90;;;;;;5051617;28;20463;-78
2023/07/21 05:57:39;;;;;;;16.33;14.67;;;17.40;99.90;;;;;;5072085;22;21005;-85
2023/07/21 06:00:12;;;;;;;17.27;14.50;;;17.50;99.90;;;;;;5050552;28;20492;-81
2023/07/21 06:02:39;;;;;;;15.90;14.40;;;17.50;99.90;;;;;;5054350;28;20992;-82
2023/07/21 06:05:06;;;;;;;15.63;14.10;;;17.40;99.90;;;;;;5053324;28;20467;-80
2023/07/21 06:07:33;;;;;;;14.43;12.87;;;17.50;99.90;;;;;;5052435;28;20467;-83
2023/07/21 06:10:00;;;;;;;14.50;13.00;;;17.50;99.90;;;;;;5052540;28;20462;-84
2023/07/21 06:12:27;;;;;;;18.13;13.37;;;17.50;99.90;;;;;;5037572;28;20452;-83
2023/07/21 06:14:54;;;;;;;15.07;13.50;;;17.50;99.90;;;;;;5036583;28;20448;-83
2023/07/21 06:17:22;;;;;;;14.40;13.03;;;17.50;99.90;;;;;;5052141;28;20469;-82
2023/07/21 06:19:49;;;;;;;13.30;11.87;;;17.60;99.90;;;;;;5052385;28;20453;-84
2023/07/21 06:22:16;;;;;;;12.43;11.13;;;17.60;99.90;;;;;;5050130;28;20454;-83
2023/07/21 06:24:43;;;;;;;13.77;11.90;;;17.60;99.90;;;;;;5052170;28;20459;-84
2023/07/21 06:27:12;;;;;;;11.77;10.53;;;17.70;99.90;;;;;;5051091;28;20553;-83
2023/07/21 06:29:39;;;;;;;12.17;10.97;;;17.70;99.90;;;;;;5051903;28;20462;-84
2023/07/21 06:32:06;;;;;;;12.60;11.33;;;17.70;99.90;;;;;;5051899;28;20457;-82
2023/07/21 06:34:35;;;;;;;13.30;11.73;;;17.80;99.90;;;;;;5052719;28;20466;-83
2023/07/21 06:37:02;;;;;;;13.43;12.07;;;17.80;99.90;;;;;;5051402;28;20493;-81
2023/07/21 06:39:29;;;;;;;16.70;13.20;;;17.70;99.90;;;;;;5052708;28;20466;-82
2023/07/21 06:41:55;;;;;;;13.40;12.00;;;17.80;99.90;;;;;;5054452;28;20538;-83
2023/07/21 06:44:22;;;;;;;12.57;10.43;;;17.70;99.90;;;;;;5053484;28;20827;-83
2023/07/21 06:46:51;;;;;;;11.37;10.33;;;17.90;99.90;;;;;;5052015;28;20494;-81
2023/07/21 06:49:18;;;;;;;11.03;9.10;;;17.90;99.90;;;;;;5054881;28;20482;-83
2023/07/21 06:51:46;;;;;;;10.83;9.83;;;18.10;99.90;;;;;;5052826;28;20489;-82
2023/07/21 06:54:13;;;;;;;12.10;11.00;;;18.10;99.90;;;;;;5055075;28;20908;-83
2023/07/21 06:56:40;;;;;;;12.07;10.60;;;18.20;99.90;;;;;;5052916;28;20455;-80
2023/07/21 06:59:07;;;;;;;11.00;9.97;;;18.30;99.90;;;;;;5052457;28;20649;-83
2023/07/21 07:01:33;;;;;;;10.20;9.10;;;18.30;99.90;;;;;;5052864;28;20872;-80
2023/07/21 07:04:00;;;;;;;10.97;9.83;;;18.40;99.90;;;;;;5038594;28;20535;-81
2023/07/21 07:06:28;;;;;;;11.00;9.87;;;18.40;99.90;;;;;;5033851;28;20506;-83
2023/07/21 07:08:56;;;;;;;10.17;9.17;;;18.40;99.90;;;;;;5042599;28;20475;-83
2023/07/21 07:11:23;;;;;;;10.63;9.50;;;18.40;26.00;;;;;;5048812;28;20467;-82
2023/07/21 07:13:50;;;;;;;11.20;10.00;;;18.40;76.80;;;;;;5054073;28;20455;-81
2023/07/21 07:16:18;;;;;;;10.93;9.83;;;18.50;99.90;;;;;;5055215;28;20474;-82
2023/07/21 07:18:45;;;;;;;9.20;8.30;;;18.50;68.10;;;;;;5063043;28;20586;-83
2023/07/21 07:21:12;;;;;;;10.80;9.77;;;18.50;25.50;;;;;;5056812;28;20561;-82
2023/07/21 07:23:39;;;;;;;11.70;8.30;;;18.60;4.70;;;;;;5057356;28;20459;-82
2023/07/21 07:26:07;;;;;;;11.07;9.83;;;18.60;99.90;;;;;;5049726;28;20570;-81
2023/07/21 07:28:35;;;;;;;11.23;10.13;;;18.70;99.90;;;;;;5052236;28;20907;-80
2023/07/21 07:31:04;;;;;;;15.67;10.37;;;18.80;99.90;;;;;;5056365;28;20448;-82
2023/07/21 07:33:32;;;;;;;13.20;9.60;;;18.80;55.70;;;;;;5053282;28;20455;-82
2023/07/21 07:36:00;;;;;;;13.50;11.30;;;18.80;1.90;;;;;;5055328;28;20863;-81
2023/07/21 07:38:29;;;;;;;13.80;10.90;;;18.90;1.00;;;;;;5054205;28;20482;-79
2023/07/21 07:41:01;;;;;;;12.90;11.53;;;19.00;24.40;;;;;;5052514;28;20462;-81
2023/07/21 07:43:29;;;;;;;13.77;12.37;;;19.00;1.00;;;;;;5054974;28;20466;-79
2023/07/21 07:45:58;;;;;;;15.60;12.10;;;19.00;1.00;;;;;;5057835;28;20855;-81
2023/07/21 07:48:25;;;;;;;13.43;11.80;;;19.00;1.00;;;;;;5054105;28;20471;-81
2023/07/21 07:50:53;;;;;;;10.70;9.60;;;19.00;1.00;;;;;;5056987;28;20498;-78
2023/07/21 07:53:20;;;;;;;11.67;10.43;;;19.10;22.10;;;;;;5063614;28;20538;-80
2023/07/21 07:55:47;;;;;;;10.30;9.30;;;19.30;9.00;;;;;;5052835;28;20886;-83
2023/07/21 07:58:14;;;;;;;11.10;9.50;;;19.40;1.00;;;;;;5057462;28;20928;-82
2023/07/21 08:00:44;;;;;;;9.37;8.47;;;19.50;1.00;;;;;;5057649;28;21017;-83
2023/07/21 08:03:11;;;;;;;10.60;9.50;;;19.50;1.00;;;;;;5055773;28;20463;-80
2023/07/21 08:05:39;;;;;;;12.00;10.03;;;19.50;1.00;;;;;;5065073;28;20468;-79
2023/07/21 08:08:08;;;;;;;16.33;9.50;;;19.50;1.00;;;;;;5053347;28;20483;-81
2023/07/21 08:10:43;;;;;;;8.70;7.80;;;19.70;1.00;;;;;;5053784;28;20452;-80
2023/07/21 08:13:10;;;;;;;10.07;8.10;;;19.80;1.00;;;;;;5054217;28;20501;-80
2023/07/21 08:15:36;;;;;;;9.47;8.20;;;19.80;99.90;;;;;;5055829;28;20432;-82
2023/07/21 08:18:10;;;;;;;9.53;6.80;;;19.90;1.00;;;;;;5054829;28;20562;-79
2023/07/21 08:20:44;;;;;;;8.70;7.80;;;20.00;1.00;;;;;;5056743;28;20509;-80
2023/07/21 08:23:22;;;;;;;8.33;6.30;;;20.10;53.90;;;;;;5053837;28;21038;-83
2023/07/21 08:25:49;;;;;;;9.43;7.50;;;20.10;99.90;;;;;;5054421;28;20484;-84
2023/07/21 08:28:16;;;;;;;6.97;6.27;;;20.20;24.30;;;;;;5055223;28;20478;-80
2023/07/21 08:30:43;;;;;;;7.30;6.37;;;20.30;1.00;;;;;;5051075;28;20868;-80
2023/07/21 08:33:11;;;;;;;6.17;5.57;;;20.40;1.00;;;;;;5048876;28;20872;-80
2023/07/21 08:35:38;;;;;;;8.13;7.30;;;20.50;99.90;;;;;;5050648;28;20491;-79
2023/07/21 08:38:04;;;;;;;11.20;7.13;;;20.50;1.00;;;;;;5053040;28;20475;-80
2023/07/21 08:40:31;;;;;;;7.40;6.70;;;20.60;99.90;;;;;;5052407;28;20546;-82
2023/07/21 08:43:01;;;;;;;7.67;6.93;;;20.60;1.00;;;;;;5051773;28;20455;-80
2023/07/21 08:45:31;;;;;;;8.43;6.63;;;20.70;99.90;;;;;;5050472;28;20490;-79
2023/07/21 08:48:00;;;;;;;8.50;6.30;;;20.90;1.00;;;;;;5050391;28;20492;-80
2023/07/21 08:50:29;;;;;;;7.10;5.40;;;20.90;99.90;;;;;;5048290;28;20946;-80
2023/07/21 08:52:56;;;;;;;7.30;5.50;;;21.00;1.00;;;;;;5050429;28;20901;-81
2023/07/21 08:55:24;;;;;;;5.63;4.53;;;20.90;99.90;;;;;;5051032;28;20452;-80
2023/07/21 08:57:56;;;;;;;5.60;5.00;;;20.90;1.00;;;;;;5051056;28;20472;-82
2023/07/21 09:00:25;;;;;;;7.03;5.73;;;20.90;1.00;;;;;;5048129;28;20444;-80
2023/07/21 09:02:59;;;;;;;7.20;5.20;;;20.80;99.90;;;;;;5052689;28;20885;-79
2023/07/21 09:05:26;;;;;;;5.73;4.90;;;20.80;99.90;;;;;;5050876;28;21009;-79
2023/07/21 09:07:55;;;;;;;8.10;5.70;;;20.80;1.00;;;;;;5050860;28;20501;-81
2023/07/21 09:10:31;;;;;;;7.33;6.53;;;20.90;1.00;;;;;;5052684;28;20454;-82
2023/07/21 09:12:58;;;;;;;5.60;5.10;;;21.00;1.00;;;;;;5053429;28;20456;-80
2023/07/21 09:15:25;;;;;;;7.30;4.40;;;21.10;99.90;;;;;;5051979;28;20873;-81
2023/07/21 09:17:52;;;;;;;6.63;5.87;;;21.30;1.00;;;;;;5052898;28;20491;-80
2023/07/21 09:20:19;;;;;;;6.40;4.73;;;21.30;99.90;;;;;;5050436;28;20463;-81
2023/07/21 09:22:48;;;;;;;5.30;4.80;;;21.40;99.90;;;;;;5051771;28;20477;-81
2023/07/21 09:25:21;;;;;;;6.83;5.23;;;21.60;99.90;;;;;;5050719;28;20460;-77
2023/07/21 09:27:53;;;;;;;6.63;4.60;;;21.70;99.90;;;;;;5051404;28;20484;-81
2023/07/21 09:30:20;;;;;;;6.43;5.40;;;21.90;99.90;;;;;;5050565;28;20452;-80
2023/07/21 09:32:47;;;;;;;5.67;4.50;;;22.10;1.00;;;;;;5055496;28;20520;-79
2023/07/21 09:35:14;;;;;;;5.00;4.20;;;22.10;1.00;;;;;;5051646;28;20456;-80
2023/07/21 09:37:41;;;;;;;5.17;3.10;;;22.00;1.00;;;;;;5051217;28;20468;-80
2023/07/21 09:40:10;;;;;;;3.93;3.50;;;21.80;1.00;;;;;;5053557;28;20797;-78
2023/07/21 09:42:39;;;;;;;4.80;3.90;;;21.80;1.00;;;;;;5052004;28;20452;-79
2023/07/21 09:45:07;;;;;;;4.90;3.63;;;21.70;1.00;;;;;;5052200;28;20448;-79
2023/07/21 09:47:34;;;;;;;5.90;3.83;;;21.90;1.00;;;;;;5050872;28;20483;-80
2023/07/21 09:50:02;;;;;;;3.43;2.90;;;22.30;1.00;;;;;;5050408;28;20471;-80
2023/07/21 09:52:30;;;;;;;3.90;2.87;;;22.40;1.00;;;;;;5037049;28;21154;-79
2023/07/21 09:55:07;;;;;;;4.60;2.47;;;22.40;1.00;;;;;;5039476;28;20452;-78
2023/07/21 09:57:35;;;;;;;3.70;2.83;;;22.50;1.00;;;;;;5055030;28;21068;-80
2023/07/21 10:00:12;;;;;;;3.80;2.43;;;22.40;1.00;;;;;;5056864;28;20482;-79
2023/07/21 10:02:40;;;;;;;3.60;2.60;;;22.20;1.00;;;;;;5045814;28;20451;-80
2023/07/21 10:05:09;;;;;;;3.33;2.73;;;22.50;1.00;;;;;;5055908;28;20452;-80
2023/07/21 10:07:37;;;;;;;4.80;4.30;;;22.50;1.00;;;;;;5055605;28;20492;-80
2023/07/21 10:10:06;;;;;;;4.73;4.10;;;22.60;1.00;;;;;;5042098;28;20523;-80
2023/07/21 10:12:42;;;;;;;5.20;3.43;;;22.90;1.00;;;;;;5055721;28;20873;-81
2023/07/21 10:15:16;;;;;;;4.50;3.50;;;22.80;1.00;;;;;;5045061;28;20436;-80
2023/07/21 10:17:59;;;;;;;4.57;3.87;;;22.80;1.00;;;;;;5056841;28;20463;-80
2023/07/21 10:20:49;;;;;;;4.87;3.63;;;22.70;1.00;;;;;;5055244;28;20744;-80
2023/07/21 10:23:17;;;;;;;5.90;4.40;;;22.90;1.00;;;;;;5056096;28;20436;-79
2023/07/21 10:25:53;;;;;;;5.20;4.70;;;22.80;1.00;;;;;;5053480;28;20458;-78
2023/07/21 10:28:23;;;;;;;6.70;5.27;;;22.80;1.00;;;;;;5055228;28;20487;-78
2023/07/21 10:30:52;;;;;;;4.47;4.03;;;23.10;1.00;;;;;;5056663;28;20951;-77
2023/07/21 10:33:21;;;;;;;6.87;5.53;;;23.30;1.00;;;;;;5055216;28;20530;-80
2023/07/21 10:35:49;;;;;;;9.73;5.37;;;23.20;1.00;;;;;;5054846;28;20462;-81
2023/07/21 10:38:24;;;;;;;4.40;4.00;;;23.20;1.00;;;;;;5054748;28;20574;-80
2023/07/21 10:40:51;;;;;;;4.87;4.10;;;23.00;1.00;;;;;;5055770;28;20444;-80
2023/07/21 10:43:18;;;;;;;4.60;3.50;;;23.20;1.00;;;;;;5056684;28;20483;-79
2023/07/21 10:45:53;;;;;;;6.13;4.57;;;23.30;1.00;;;;;;5055710;28;20455;-80
2023/07/21 10:48:22;;;;;;;5.33;3.60;;;23.10;1.00;;;;;;5055549;28;20507;-79
2023/07/21 10:50:54;;;;;;;5.90;4.47;;;23.10;1.00;;;;;;5054532;28;20447;-80
2023/07/21 10:53:21;;;;;;;7.83;4.83;;;23.10;1.00;;;;;;5055820;28;20813;-80
2023/07/21 10:55:50;;;;;;;5.10;4.00;;;23.40;1.00;;;;;;5054164;28;20463;-80
2023/07/21 10:58:17;;;;;;;4.00;3.40;;;23.60;1.00;;;;;;5056323;28;20481;-80
2023/07/21 11:00:45;;;;;;;6.23;4.00;;;23.60;1.00;;;;;;5056101;28;20955;-78
2023/07/21 11:03:13;;;;;;;4.37;3.67;;;23.60;1.00;;;;;;5054201;28;20448;-80
2023/07/21 11:05:40;;;;;;;3.50;3.20;;;23.70;1.00;;;;;;5054598;28;20456;-80
2023/07/21 11:08:11;;;;;;;5.07;3.90;;;23.70;1.00;;;;;;5053498;28;20491;-80
2023/07/21 11:10:38;;;;;;;4.07;2.90;;;23.60;1.00;;;;;;5055854;28;20435;-78
2023/07/21 11:13:05;;;;;;;5.27;3.43;;;23.70;1.00;;;;;;5056178;28;20444;-79
2023/07/21 11:15:32;;;;;;;3.90;3.50;;;23.60;99.90;;;;;;5055231;28;20470;-79
2023/07/21 11:18:00;;;;;;;5.90;4.90;;;23.50;99.90;;;;;;5056540;28;20470;-79
2023/07/21 11:20:30;;;;;;;5.07;4.57;;;24.00;1.00;;;;;;5054939;28;20448;-79
2023/07/21 11:22:57;;;;;;;6.07;4.90;;;24.60;1.00;;;;;;5056803;28;20485;-79
2023/07/21 11:25:24;;;;;;;5.60;4.77;;;25.30;1.00;;;;;;5053977;28;20448;-80
2023/07/21 11:27:51;;;;;;;6.43;4.37;;;25.60;99.90;;;;;;5055924;28;20495;-78
2023/07/21 11:30:18;;;;;;;4.70;4.20;;;25.80;1.00;;;;;;5056146;28;20483;-81
2023/07/21 11:32:45;;;;;;;4.30;3.90;;;26.00;99.90;;;;;;5055752;28;21047;-78
2023/07/21 11:35:12;;;;;;;4.40;4.00;;;26.00;99.90;;;;;;5055191;28;20995;-78
2023/07/21 11:37:42;;;;;;;4.00;3.70;;;25.70;99.90;;;;;;5054920;28;20477;-79
2023/07/21 11:40:14;;;;;;;4.70;3.80;;;25.30;99.90;;;;;;5056027;28;20711;-81
2023/07/21 11:42:45;;;;;;;5.47;4.43;;;25.10;99.90;;;;;;5055481;28;20862;-81
2023/07/21 11:45:32;;;;;;;4.10;3.80;;;25.00;99.90;;;;;;5054430;28;20455;-78
2023/07/21 11:47:59;;;;;;;4.70;4.27;;;25.10;99.90;;;;;;5055193;28;20572;-81
2023/07/21 11:50:28;;;;;;;4.67;3.93;;;25.00;99.90;;;;;;5056103;28;20451;-80
2023/07/21 11:52:59;;;;;;;4.20;3.63;;;24.70;99.90;;;;;;5056855;28;20502;-80
2023/07/21 11:55:26;;;;;;;4.10;3.20;;;24.70;99.90;;;;;;5054975;28;20854;-80
2023/07/21 11:57:53;;;;;;;3.40;3.10;;;25.00;99.90;;;;;;5080548;22;20490;-79
2023/07/21 12:00:20;;;;;;;3.57;3.27;;;25.20;99.90;;;;;;5079165;28;20521;-80
2023/07/21 12:02:47;;;;;;;2.80;2.50;;;25.40;99.90;;;;;;5080172;28;20459;-78
2023/07/21 12:05:14;;;;;;;3.40;2.23;;;25.70;99.90;;;;;;5082626;28;20541;-82
2023/07/21 12:07:42;;;;;;;3.33;2.47;;;26.00;99.90;;;;;;5080498;28;20892;-80
2023/07/21 12:10:11;;;;;;;3.77;2.23;;;26.00;99.90;;;;;;5081552;28;21024;-83
2023/07/21 12:12:39;;;;;;;2.90;2.60;;;25.90;99.90;;;;;;5082816;28;20434;-80
2023/07/21 12:15:09;;;;;;;3.33;2.40;;;26.10;99.90;;;;;;5077644;28;20457;-78
2023/07/21 12:17:36;;;;;;;3.07;2.10;;;26.40;99.90;;;;;;5080590;28;20459;-81
2023/07/21 12:20:11;;;;;;;3.03;2.40;;;26.10;99.90;;;;;;5078561;28;20547;-80
2023/07/21 12:22:40;;;;;;;2.80;2.43;;;25.60;99.90;;;;;;5079447;28;20442;-81
2023/07/21 12:25:12;;;;;;;2.50;1.90;;;25.20;99.90;;;;;;5077722;28;20508;-81
2023/07/21 12:27:39;;;;;;;3.20;1.83;;;24.90;99.90;;;;;;5078847;28;20489;-80
2023/07/21 12:30:08;;;;;;;3.33;2.30;;;24.50;99.90;;;;;;5078107;28;20822;-80
2023/07/21 12:32:36;;;;;;;2.93;1.77;;;24.10;99.90;;;;;;5078640;28;20500;-81
2023/07/21 12:35:04;;;;;;;7.73;2.27;;;23.80;99.90;;;;;;5078298;28;20539;-81
2023/07/21 12:37:32;;;;;;;3.17;1.97;;;23.40;99.90;;;;;;5078602;28;21008;-81
2023/07/21 12:39:59;;;;;;;2.80;2.20;;;23.10;99.90;;;;;;5079403;28;21033;-80
2023/07/21 12:42:29;;;;;;;3.60;2.30;;;22.90;99.90;;;;;;5078001;28;20453;-81
2023/07/21 12:44:56;;;;;;;4.77;1.97;;;22.70;99.90;;;;;;5081555;28;20458;-81
2023/07/21 12:47:23;;;;;;;3.67;2.07;;;22.50;1.00;;;;;;5077914;28;21001;-82
2023/07/21 12:49:50;;;;;;;3.70;1.83;;;22.40;1.00;;;;;;5077555;28;20542;-81